Time;durP1;ratioP1;P1;durP2;ratioP2;P2;SDS_P1;SDS_P2;PMS_P1;PMS_P2;Temp;Humidity;BMP_temperature;BMP_pressure;BME280_temperature;BME280_humidity;BME280_pressure;Samples;Min_cycle;Max_cycle;Signal;HPM_P1;HPM_P2
2022/08/22 00:00:15;;;;;;;;;;;;;;;;;;5115926;28;926;-73
2022/08/22 00:02:41;;;;;;;;;;;;;;;;;;5102845;28;1235;-74
2022/08/22 00:05:12;;;;;;;;;;;;;;;;;;5105075;28;1905;-73
2022/08/22 00:07:47;;;;;;;;;;;;;;;;;;5104664;28;1131;-74
2022/08/22 00:10:20;;;;;;;;;;;;;;;;;;5102323;28;1174;-68
2022/08/22 00:13:00;;;;;;;;;;;;;;;;;;5115615;28;930;-68
2022/08/22 00:15:33;;;;;;;;;;;;;;;;;;5113765;28;978;-68
2022/08/22 00:18:07;;;;;;;;;;;;;;;;;;5113571;28;899;-68
2022/08/22 00:20:38;;;;;;;;;;;;;;;;;;5113574;28;943;-67
2022/08/22 00:23:10;;;;;;;;;;;;;;;;;;5113754;28;918;-67
2022/08/22 00:25:54;;;;;;;;;;;;;;;;;;5094862;28;1947;-68
2022/08/22 00:28:23;;;;;;;;;;;;;;;;;;5095372;28;1534;-72
2022/08/22 00:30:54;;;;;;;;;;;;;;;;;;5096560;28;1180;-73
2022/08/22 00:33:40;;;;;;;;;;;;;;;;;;5096481;28;1215;-73
2022/08/22 00:36:13;;;;;;;;;;;;;;;;;;5114603;28;1135;-73
2022/08/22 00:38:45;;;;;;;;;;;;;;;;;;5096522;28;1191;-73
2022/08/22 00:41:23;;;;;;;;;;;;;;;;;;5114700;28;1083;-73
2022/08/22 00:43:52;;;;;;;;;;;;;;;;;;5113528;28;1155;-73
2022/08/22 00:46:36;;;;;;;;;;;;;;;;;;5112403;28;1971;-73
2022/08/22 00:49:06;;;;;;;;;;;;;;;;;;5112747;28;1140;-73
2022/08/22 00:51:31;;;;;;;;;;;;;;;;;;5115078;28;966;-73
2022/08/22 00:53:59;;;;;;;;;;;;;;;;;;5095616;28;1243;-73
2022/08/22 00:56:43;;;;;;;;;;;;;;;;;;5095217;28;1250;-73
2022/08/22 00:59:12;;;;;;;;;;;;;;;;;;5096145;28;1145;-74
2022/08/22 01:01:48;;;;;;;;;;;;;;;;;;5094965;28;1162;-74
2022/08/22 01:04:28;;;;;;;;;;;;;;;;;;5095427;28;1963;-73
2022/08/22 01:07:12;;;;;;;;;;;;;;;;;;5113370;28;883;-74
2022/08/22 01:09:37;;;;;;;;;;;;;;;;;;5095237;28;1243;-73
2022/08/22 01:12:23;;;;;;;;;;;;;;;;;;5113595;28;820;-73
2022/08/22 01:14:54;;;;;;;;;;;;;;;;;;5112133;28;1108;-73
2022/08/22 01:17:19;;;;;;;;;;;;;;;;;;5095527;28;1416;-73
2022/08/22 01:20:04;;;;;;;;;;;;;;;;;;5094559;28;1215;-73
2022/08/22 01:22:48;;;;;;;;;;;;;;;;;;5113214;28;786;-73
2022/08/22 01:25:19;;;;;;;;;;;;;;;;;;5095248;28;1977;-73
2022/08/22 01:27:47;;;;;;;;;;;;;;;;;;5094518;28;1313;-74
2022/08/22 01:30:39;;;;;;;;;;;;;;;;;;5094539;28;1214;-73
2022/08/22 01:33:23;;;;;;;;;;;;;;;;;;5081372;28;1179;-74
2022/08/22 01:36:20;;;;;;;;;;;;;;;;;;5112434;28;872;-74
2022/08/22 01:38:59;;;;;;;;;;;;;;;;;;5050545;28;1377;-73
2022/08/22 01:41:34;;;;;;;;;;;;;;;;;;5094130;28;1202;-73
2022/08/22 01:44:18;;;;;;;;;;;;;;;;;;5094758;28;1203;-74
2022/08/22 01:46:49;;;;;;;;;;;;;;;;;;5094342;28;1352;-73
2022/08/22 01:49:20;;;;;;;;;;;;;;;;;;5113074;28;824;-73
2022/08/22 01:51:49;;;;;;;;;;;;;;;;;;5112636;28;840;-73
2022/08/22 01:54:36;;;;;;;;;;;;;;;;;;5095224;28;1239;-73
2022/08/22 01:57:04;;;;;;;;;;;;;;;;;;5112918;28;903;-73
2022/08/22 01:59:32;;;;;;;;;;;;;;;;;;5113531;28;828;-73
2022/08/22 02:02:13;;;;;;;;;;;;;;;;;;5094870;28;1297;-73
2022/08/22 02:04:38;;;;;;;;;;;;;;;;;;5113138;28;1882;-74
2022/08/22 02:07:13;;;;;;;;;;;;;;;;;;5112559;28;950;-73
2022/08/22 02:09:57;;;;;;;;;;;;;;;;;;5093940;28;1484;-74
2022/08/22 02:12:30;;;;;;;;;;;;;;;;;;5112017;28;816;-73
2022/08/22 02:15:11;;;;;;;;;;;;;;;;;;5112246;28;871;-73
2022/08/22 02:18:01;;;;;;;;;;;;;;;;;;5112095;28;931;-73
2022/08/22 02:20:32;;;;;;;;;;;;;;;;;;5093839;28;1411;-73
2022/08/22 02:23:18;;;;;;;;;;;;;;;;;;5112159;28;875;-74
2022/08/22 02:25:46;;;;;;;;;;;;;;;;;;5110900;28;1906;-73
2022/08/22 02:28:15;;;;;;;;;;;;;;;;;;5112005;28;896;-73
2022/08/22 02:30:51;;;;;;;;;;;;;;;;;;5111549;28;1058;-74
2022/08/22 02:33:35;;;;;;;;;;;;;;;;;;5112143;28;927;-74
2022/08/22 02:36:16;;;;;;;;;;;;;;;;;;5112211;28;754;-73
2022/08/22 02:38:59;;;;;;;;;;;;;;;;;;5112007;28;836;-73
2022/08/22 02:41:47;;;;;;;;;;;;;;;;;;5093139;28;1190;-73
2022/08/22 02:44:16;;;;;;;;;;;;;;;;;;5093367;28;1917;-72
2022/08/22 02:46:52;;;;;;;;;;;;;;;;;;5094456;28;1329;-72
2022/08/22 02:49:24;;;;;;;;;;;;;;;;;;5100301;28;1238;-72
2022/08/22 02:51:49;;;;;;;;;;;;;;;;;;5118762;28;925;-73
2022/08/22 02:54:37;;;;;;;;;;;;;;;;;;5118112;28;977;-71
2022/08/22 02:57:02;;;;;;;;;;;;;;;;;;5118309;28;905;-71
2022/08/22 02:59:36;;;;;;;;;;;;;;;;;;5118393;28;879;-72
2022/08/22 03:02:20;;;;;;;;;;;;;;;;;;5118733;28;1018;-72
2022/08/22 03:04:49;;;;;;;;;;;;;;;;;;5118347;28;1914;-72
2022/08/22 03:07:21;;;;;;;;;;;;;;;;;;5100122;28;1223;-72
2022/08/22 03:09:55;;;;;;;;;;;;;;;;;;5118910;28;911;-72
2022/08/22 03:12:31;;;;;;;;;;;;;;;;;;5100121;28;1203;-72
2022/08/22 03:15:15;;;;;;;;;;;;;;;;;;5099789;28;1239;-72
2022/08/22 03:17:53;;;;;;;;;;;;;;;;;;5118291;28;845;-72
2022/08/22 03:20:34;;;;;;;;;;;;;;;;;;5118729;28;845;-73
2022/08/22 03:23:04;;;;;;;;;;;;;;;;;;5100479;28;1298;-68
2022/08/22 03:25:52;;;;;;;;;;;;;;;;;;5117707;28;1973;-67
2022/08/22 03:28:25;;;;;;;;;;;;;;;;;;5062475;28;1431;-67
2022/08/22 03:31:10;;;;;;;;;;;;;;;;;;5118770;28;970;-67
2022/08/22 03:33:35;;;;;;;;;;;;;;;;;;5117924;28;935;-67
2022/08/22 03:36:12;;;;;;;;;;;;;;;;;;5118051;28;936;-67
2022/08/22 03:38:53;;;;;;;;;;;;;;;;;;5099389;28;1306;-67
2022/08/22 03:41:48;;;;;;;;;;;;;;;;;;5117217;28;1466;-67
2022/08/22 03:44:25;;;;;;;;;;;;;;;;;;5117340;28;1969;-67
2022/08/22 03:47:02;;;;;;;;;;;;;;;;;;5117539;28;914;-67
2022/08/22 03:49:46;;;;;;;;;;;;;;;;;;5117352;28;903;-67
2022/08/22 03:52:11;;;;;;;;;;;;;;;;;;5117424;28;923;-67
2022/08/22 03:54:36;;;;;;;;;;;;;;;;;;5117208;28;835;-67
2022/08/22 03:57:10;;;;;;;;;;;;;;;;;;5116974;28;911;-67
2022/08/22 03:59:57;;;;;;;;;;;;;;;;;;5113936;28;820;-67
2022/08/22 04:02:33;;;;;;;;;;;;;;;;;;5114201;28;921;-66
2022/08/22 04:04:58;;;;;;;;;;;;;;;;;;5095793;28;1956;-66
2022/08/22 04:07:43;;;;;;;;;;;;;;;;;;5095884;28;1305;-66
2022/08/22 04:10:26;;;;;;;;;;;;;;;;;;5113993;28;1073;-66
2022/08/22 04:13:02;;;;;;;;;;;;;;;;;;5114239;28;1033;-66
2022/08/22 04:15:47;;;;;;;;;;;;;;;;;;5113842;28;871;-66
2022/08/22 04:18:31;;;;;;;;;;;;;;;;;;5114272;28;836;-66
2022/08/22 04:21:05;;;;;;;;;;;;;;;;;;5113929;28;962;-66
2022/08/22 04:23:49;;;;;;;;;;;;;;;;;;5113513;28;916;-67
2022/08/22 04:26:20;;;;;;;;;;;;;;;;;;5113529;28;1885;-66
2022/08/22 04:28:45;;;;;;;;;;;;;;;;;;5094547;28;1211;-66
2022/08/22 04:31:11;;;;;;;;;;;;;;;;;;5113718;28;911;-66
2022/08/22 04:33:49;;;;;;;;;;;;;;;;;;5096960;28;1148;-66
2022/08/22 04:36:18;;;;;;;;;;;;;;;;;;5116413;28;860;-66
2022/08/22 04:38:58;;;;;;;;;;;;;;;;;;5098008;28;1313;-66
2022/08/22 04:41:28;;;;;;;;;;;;;;;;;;5096437;28;1238;-66
2022/08/22 04:43:56;;;;;;;;;;;;;;;;;;5113884;28;1128;-66
2022/08/22 04:46:22;;;;;;;;;;;;;;;;;;5114941;28;1975;-67
2022/08/22 04:48:52;;;;;;;;;;;;;;;;;;5119471;28;868;-66
2022/08/22 04:51:21;;;;;;;;;;;;;;;;;;5099113;28;1211;-66
2022/08/22 04:53:55;;;;;;;;;;;;;;;;;;5115762;28;1171;-67
2022/08/22 04:56:20;;;;;;;;;;;;;;;;;;5114447;28;1060;-66
2022/08/22 04:58:49;;;;;;;;;;;;;;;;;;5098883;28;1284;-66
2022/08/22 05:01:19;;;;;;;;;;;;;;;;;;5115081;28;1022;-66
2022/08/22 05:03:49;;;;;;;;;;;;;;;;;;5113220;28;820;-66
2022/08/22 05:06:17;;;;;;;;;;;;;;;;;;5112792;28;1967;-67
2022/08/22 05:08:44;;;;;;;;;;;;;;;;;;5094440;28;1242;-67
2022/08/22 05:11:11;;;;;;;;;;;;;;;;;;5112145;28;840;-67
2022/08/22 05:13:39;;;;;;;;;;;;;;;;;;5112580;28;820;-67
2022/08/22 05:16:08;;;;;;;;;;;;;;;;;;5094459;28;1405;-67
2022/08/22 05:18:37;;;;;;;;;;;;;;;;;;5094596;28;1363;-67
2022/08/22 05:21:05;;;;;;;;;;;;;;;;;;5112662;28;884;-66
2022/08/22 05:23:41;;;;;;;;;;;;;;;;;;5094224;28;1222;-67
2022/08/22 05:26:06;;;;;;;;;;;;;;;;;;5094305;28;1901;-66
2022/08/22 05:28:38;;;;;;;;;;;;;;;;;;5112395;28;895;-67
2022/08/22 05:31:29;;;;;;;;;;;;;;;;;;5112514;28;859;-66
2022/08/22 05:34:00;;;;;;;;;;;;;;;;;;5090535;28;1284;-66
2022/08/22 05:36:27;;;;;;;;;;;;;;;;;;5111983;28;915;-67
2022/08/22 05:38:52;;;;;;;;;;;;;;;;;;5112810;28;970;-67
2022/08/22 05:41:22;;;;;;;;;;;;;;;;;;5111740;28;1215;-67
2022/08/22 05:43:48;;;;;;;;;;;;;;;;;;5093990;28;1333;-68
2022/08/22 05:46:34;;;;;;;;;;;;;;;;;;5076506;28;1973;-68
2022/08/22 05:49:01;;;;;;;;;;;;;;;;;;5110727;28;1258;-68
2022/08/22 05:51:36;;;;;;;;;;;;;;;;;;5093150;28;1254;-69
2022/08/22 05:54:08;;;;;;;;;;;;;;;;;;5112138;28;895;-68
2022/08/22 05:56:36;;;;;;;;;;;;;;;;;;5111796;28;924;-68
2022/08/22 05:59:03;;;;;;;;;;;;;;;;;;5111977;28;853;-68
2022/08/22 06:01:32;;;;;;;;;;;;;;;;;;5092854;28;1229;-69
2022/08/22 06:04:05;;;;;;;;;;;;;;;;;;5093492;28;1210;-68
2022/08/22 06:06:33;;;;;;;;;;;;;;;;;;5111427;28;1974;-68
2022/08/22 06:09:05;;;;;;;;;;;;;;;;;;5093647;28;1254;-66
2022/08/22 06:11:39;;;;;;;;;;;;;;;;;;5111610;28;900;-66
2022/08/22 06:14:34;;;;;;;;;;;;;;;;;;5112153;28;855;-73
2022/08/22 06:17:06;;;;;;;;;;;;;;;;;;5094745;28;1101;-72
2022/08/22 06:19:37;;;;;;;;;;;;;;;;;;5094489;28;1171;-73
2022/08/22 06:22:03;;;;;;;;;;;;;;;;;;5094465;28;1309;-73
2022/08/22 06:24:30;;;;;;;;;;;;;;;;;;5094735;28;1913;-72
2022/08/22 06:27:00;;;;;;;;;;;;;;;;;;5113645;28;915;-71
2022/08/22 06:29:32;;;;;;;;;;;;;;;;;;5117844;28;844;-73
2022/08/22 06:32:00;;;;;;;;;;;;;;;;;;5120069;28;1014;-73
2022/08/22 06:34:27;;;;;;;;;;;;;;;;;;5112251;28;919;-72
2022/08/22 06:36:54;;;;;;;;;;;;;;;;;;5111218;28;978;-73
2022/08/22 06:39:24;;;;;;;;;;;;;;;;;;5097752;28;1157;-74
2022/08/22 06:42:08;;;;;;;;;;;;;;;;;;5093937;28;1270;-73
2022/08/22 06:44:38;;;;;;;;;;;;;;;;;;5092841;28;1910;-73
2022/08/22 06:47:05;;;;;;;;;;;;;;;;;;5093529;28;1415;-73
2022/08/22 06:49:33;;;;;;;;;;;;;;;;;;5114039;28;911;-73
2022/08/22 06:52:04;;;;;;;;;;;;;;;;;;5093247;28;1222;-73
2022/08/22 06:54:33;;;;;;;;;;;;;;;;;;5111188;28;959;-73
2022/08/22 06:56:59;;;;;;;;;;;;;;;;;;5111474;28;935;-73
2022/08/22 06:59:26;;;;;;;;;;;;;;;;;;5111177;28;812;-73
2022/08/22 07:02:00;;;;;;;;;;;;;;;;;;5092531;28;1359;-74
2022/08/22 07:04:25;;;;;;;;;;;;;;;;;;5093131;28;1890;-73
2022/08/22 07:06:52;;;;;;;;;;;;;;;;;;5111443;28;813;-74
2022/08/22 07:09:38;;;;;;;;;;;;;;;;;;5111679;28;829;-73
2022/08/22 07:12:09;;;;;;;;;;;;;;;;;;5111011;28;1140;-73
2022/08/22 07:14:43;;;;;;;;;;;;;;;;;;5092717;28;1393;-73
2022/08/22 07:17:24;;;;;;;;;;;;;;;;;;5111285;28;1218;-73
2022/08/22 07:19:58;;;;;;;;;;;;;;;;;;5092864;28;1238;-74
2022/08/22 07:22:25;;;;;;;;;;;;;;;;;;5091442;28;1194;-75
2022/08/22 07:24:53;;;;;;;;;;;;;;;;;;5110991;28;1894;-73
2022/08/22 07:27:25;;;;;;;;;;;;;;;;;;5111222;28;801;-73
2022/08/22 07:30:11;;;;;;;;;;;;;;;;;;5111104;28;894;-74
2022/08/22 07:32:40;;;;;;;;;;;;;;;;;;5092973;28;1230;-74
2022/08/22 07:35:15;;;;;;;;;;;;;;;;;;5114368;28;930;-74
2022/08/22 07:37:49;;;;;;;;;;;;;;;;;;5115689;28;800;-74
2022/08/22 07:40:31;;;;;;;;;;;;;;;;;;5115124;28;789;-74
2022/08/22 07:42:59;;;;;;;;;;;;;;;;;;5115276;28;1365;-74
2022/08/22 07:45:38;;;;;;;;;;;;;;;;;;5096648;28;1969;-74
2022/08/22 07:48:12;;;;;;;;;;;;;;;;;;5115635;28;902;-74
2022/08/22 07:50:55;;;;;;;;;;;;;;;;;;5115536;28;843;-74
2022/08/22 07:53:27;;;;;;;;;;;;;;;;;;5094134;28;1299;-74
2022/08/22 07:55:55;;;;;;;;;;;;;;;;;;5092223;28;1544;-74
2022/08/22 07:58:21;;;;;;;;;;;;;;;;;;5110460;28;1368;-74
2022/08/22 08:00:47;;;;;;;;;;;;;;;;;;5094986;28;1207;-75
2022/08/22 08:03:13;;;;;;;;;;;;;;;;;;5097104;28;919;-74
2022/08/22 08:05:41;;;;;;;;;;;;;;;;;;5096164;28;1963;-74
2022/08/22 08:08:10;;;;;;;;;;;;;;;;;;5096662;28;1340;-73
2022/08/22 08:10:38;;;;;;;;;;;;;;;;;;5114863;28;895;-73
2022/08/22 08:13:10;;;;;;;;;;;;;;;;;;5114947;28;880;-73
2022/08/22 08:15:36;;;;;;;;;;;;;;;;;;5114295;28;903;-73
2022/08/22 08:18:09;;;;;;;;;;;;;;;;;;5114508;28;951;-73
2022/08/22 08:20:35;;;;;;;;;;;;;;;;;;5114145;28;943;-73
2022/08/22 08:23:01;;;;;;;;;;;;;;;;;;5096532;28;1214;-73
2022/08/22 08:25:27;;;;;;;;;;;;;;;;;;5095860;28;1918;-73
2022/08/22 08:30:43;;;;;;;;;;;;;;;;;;5114173;28;960;-73
2022/08/22 08:33:11;;;;;;;;;;;;;;;;;;5096154;28;1414;-73
2022/08/22 08:35:39;;;;;;;;;;;;;;;;;;5095658;28;1471;-73
2022/08/22 08:38:14;;;;;;;;;;;;;;;;;;5096225;28;1119;-73
2022/08/22 08:40:39;;;;;;;;;;;;;;;;;;5095651;28;1341;-73
2022/08/22 08:43:33;;;;;;;;;;;;;;;;;;5114007;28;1230;-74
2022/08/22 08:46:08;;;;;;;;;;;;;;;;;;5111159;28;1981;-74
2022/08/22 08:48:37;;;;;;;;;;;;;;;;;;5095224;28;1539;-74
2022/08/22 08:51:21;;;;;;;;;;;;;;;;;;5114674;28;863;-74
2022/08/22 08:53:46;;;;;;;;;;;;;;;;;;5114212;28;919;-74
2022/08/22 08:56:30;;;;;;;;;;;;;;;;;;5113861;28;907;-73
2022/08/22 08:59:13;;;;;;;;;;;;;;;;;;5114244;28;939;-75
2022/08/22 09:01:48;;;;;;;;;;;;;;;;;;5113651;28;930;-74
2022/08/22 09:04:36;;;;;;;;;;;;;;;;;;5095353;28;1456;-74
2022/08/22 09:07:05;;;;;;;;;;;;;;;;;;5075689;28;1102;-74
2022/08/22 09:09:31;;;;;;;;;;;;;;;;;;5094796;28;1194;-74
2022/08/22 09:12:15;;;;;;;;;;;;;;;;;;5113971;28;1018;-74
2022/08/22 09:15:00;;;;;;;;;;;;;;;;;;5113668;28;828;-75
2022/08/22 09:17:34;;;;;;;;;;;;;;;;;;5114729;28;825;-74
2022/08/22 09:20:02;;;;;;;;;;;;;;;;;;5115765;28;884;-74
2022/08/22 09:22:45;;;;;;;;;;;;;;;;;;5115178;28;843;-74
2022/08/22 09:25:23;;;;;;;;;;;;;;;;;;5114861;28;1958;-75
2022/08/22 09:27:59;;;;;;;;;;;;;;;;;;5114890;28;890;-74
2022/08/22 09:30:28;;;;;;;;;;;;;;;;;;5096141;28;1290;-76
2022/08/22 09:32:57;;;;;;;;;;;;;;;;;;5114615;28;875;-75
2022/08/22 09:35:22;;;;;;;;;;;;;;;;;;5114835;28;825;-75
2022/08/22 09:37:57;;;;;;;;;;;;;;;;;;5114810;28;832;-75
2022/08/22 09:40:38;;;;;;;;;;;;;;;;;;5096586;28;1226;-76
2022/08/22 09:43:09;;;;;;;;;;;;;;;;;;5113938;28;1203;-75
2022/08/22 09:45:53;;;;;;;;;;;;;;;;;;5113955;28;1905;-75
2022/08/22 09:48:37;;;;;;;;;;;;;;;;;;5113911;28;930;-76
2022/08/22 09:51:13;;;;;;;;;;;;;;;;;;5113858;28;1022;-75
2022/08/22 09:53:39;;;;;;;;;;;;;;;;;;5095054;28;1313;-75
2022/08/22 09:56:11;;;;;;;;;;;;;;;;;;5114350;28;836;-75
2022/08/22 09:58:43;;;;;;;;;;;;;;;;;;5113312;28;907;-75
2022/08/22 10:01:31;;;;;;;;;;;;;;;;;;5114443;28;1128;-75
2022/08/22 10:04:22;;;;;;;;;;;;;;;;;;5115685;28;906;-75
2022/08/22 10:07:11;;;;;;;;;;;;;;;;;;5116069;28;1327;-75
2022/08/22 10:09:48;;;;;;;;;;;;;;;;;;5115053;28;1316;-75
2022/08/22 10:12:22;;;;;;;;;;;;;;;;;;5117229;28;903;-75
2022/08/22 10:14:48;;;;;;;;;;;;;;;;;;5096150;28;1187;-76
2022/08/22 10:17:17;;;;;;;;;;;;;;;;;;5114234;28;860;-76
2022/08/22 10:19:46;;;;;;;;;;;;;;;;;;5095298;28;1218;-76
2022/08/22 10:22:25;;;;;;;;;;;;;;;;;;5114178;28;880;-76
2022/08/22 10:24:59;;;;;;;;;;;;;;;;;;5094159;28;1902;-76
2022/08/22 10:27:41;;;;;;;;;;;;;;;;;;5105653;28;1297;-75
2022/08/22 10:30:17;;;;;;;;;;;;;;;;;;5094565;28;1257;-76
2022/08/22 10:32:52;;;;;;;;;;;;;;;;;;5093978;28;1190;-75
2022/08/22 10:35:24;;;;;;;;;;;;;;;;;;5114112;28;943;-76
2022/08/22 10:37:56;;;;;;;;;;;;;;;;;;5112396;28;1039;-76
2022/08/22 10:40:25;;;;;;;;;;;;;;;;;;5112635;28;841;-76
2022/08/22 10:42:52;;;;;;;;;;;;;;;;;;5112659;28;1405;-75
2022/08/22 10:45:21;;;;;;;;;;;;;;;;;;5094521;28;1901;-76
2022/08/22 10:47:49;;;;;;;;;;;;;;;;;;5112586;28;950;-76
2022/08/22 10:50:18;;;;;;;;;;;;;;;;;;5094361;28;1190;-75
2022/08/22 10:55:57;;;;;;;;;;;;;;;;;;5091942;28;930;-75
2022/08/22 10:58:27;;;;;;;;;;;;;;;;;;5113166;28;836;-76
2022/08/22 11:01:03;;;;;;;;;;;;;;;;;;5093692;28;1254;-76
2022/08/22 11:03:37;;;;;;;;;;;;;;;;;;5093624;28;1472;-76
2022/08/22 11:06:13;;;;;;;;;;;;;;;;;;5093857;28;1910;-76
2022/08/22 11:08:54;;;;;;;;;;;;;;;;;;5095890;28;1540;-76
2022/08/22 11:11:31;;;;;;;;;;;;;;;;;;5116918;28;872;-76
2022/08/22 11:14:03;;;;;;;;;;;;;;;;;;5116341;28;922;-76
2022/08/22 11:16:47;;;;;;;;;;;;;;;;;;5098141;28;1365;-76
2022/08/22 11:19:28;;;;;;;;;;;;;;;;;;5097925;28;1232;-75
2022/08/22 11:22:02;;;;;;;;;;;;;;;;;;5097802;28;1365;-75
2022/08/22 11:24:30;;;;;;;;;;;;;;;;;;5116090;28;1898;-75
2022/08/22 11:26:55;;;;;;;;;;;;;;;;;;5115710;28;895;-76
2022/08/22 11:29:37;;;;;;;;;;;;;;;;;;5097666;28;1277;-75
2022/08/22 11:32:11;;;;;;;;;;;;;;;;;;5098063;28;1183;-75
2022/08/22 11:34:55;;;;;;;;;;;;;;;;;;5115588;28;1026;-75
2022/08/22 11:37:39;;;;;;;;;;;;;;;;;;5097727;28;1294;-76
2022/08/22 11:40:20;;;;;;;;;;;;;;;;;;5097513;28;1159;-75
2022/08/22 11:42:48;;;;;;;;;;;;;;;;;;5114989;28;1091;-75
2022/08/22 11:45:25;;;;;;;;;;;;;;;;;;5115913;28;1973;-75
2022/08/22 11:47:59;;;;;;;;;;;;;;;;;;5096741;28;1418;-76
2022/08/22 11:50:33;;;;;;;;;;;;;;;;;;5115662;28;880;-76
2022/08/22 11:53:07;;;;;;;;;;;;;;;;;;5116131;28;761;-76
2022/08/22 11:55:48;;;;;;;;;;;;;;;;;;5115932;28;947;-75
2022/08/22 11:58:32;;;;;;;;;;;;;;;;;;5096215;28;1198;-69
2022/08/22 12:01:01;;;;;;;;;;;;;;;;;;5095585;28;1198;-69
2022/08/22 12:03:26;;;;;;;;;;;;;;;;;;5114019;28;1235;-69
2022/08/22 12:06:08;;;;;;;;;;;;;;;;;;5094991;28;1897;-68
2022/08/22 12:08:39;;;;;;;;;;;;;;;;;;5113699;28;903;-69
2022/08/22 12:11:10;;;;;;;;;;;;;;;;;;5114002;28;922;-69
2022/08/22 12:13:48;;;;;;;;;;;;;;;;;;5095989;28;1238;-69
2022/08/22 12:16:25;;;;;;;;;;;;;;;;;;5095362;28;1222;-69
2022/08/22 12:19:09;;;;;;;;;;;;;;;;;;5113462;28;841;-69
2022/08/22 12:21:49;;;;;;;;;;;;;;;;;;5094649;28;1463;-69
2022/08/22 12:24:21;;;;;;;;;;;;;;;;;;5113799;28;836;-69
2022/08/22 12:26:57;;;;;;;;;;;;;;;;;;5095122;28;1913;-70
2022/08/22 12:29:34;;;;;;;;;;;;;;;;;;5096187;28;1333;-76
2022/08/22 12:32:00;;;;;;;;;;;;;;;;;;5115104;28;844;-76
2022/08/22 12:34:37;;;;;;;;;;;;;;;;;;5115281;28;847;-76
2022/08/22 12:37:03;;;;;;;;;;;;;;;;;;5114964;28;911;-76
2022/08/22 12:39:42;;;;;;;;;;;;;;;;;;5115215;28;923;-75
2022/08/22 12:42:18;;;;;;;;;;;;;;;;;;5083316;28;1346;-76
2022/08/22 12:44:44;;;;;;;;;;;;;;;;;;5073448;28;1975;-75
2022/08/22 12:47:17;;;;;;;;;;;;;;;;;;5073488;28;1202;-76
2022/08/22 12:50:01;;;;;;;;;;;;;;;;;;5072386;28;1259;-76
2022/08/22 12:52:45;;;;;;;;;;;;;;;;;;5072339;28;1204;-76
2022/08/22 12:55:23;;;;;;;;;;;;;;;;;;5072483;28;1133;-76
2022/08/22 12:57:56;;;;;;;;;;;;;;;;;;5072984;28;785;-76
2022/08/22 13:00:25;;;;;;;;;;;;;;;;;;5073685;28;878;-74
2022/08/22 13:02:51;;;;;;;;;;;;;;;;;;5073412;28;817;-76
2022/08/22 13:05:20;;;;;;;;;;;;;;;;;;5071751;28;1953;-76
2022/08/22 13:07:57;;;;;;;;;;;;;;;;;;5071475;28;1156;-77
2022/08/22 13:10:34;;;;;;;;;;;;;;;;;;5073385;28;887;-76
2022/08/22 13:13:00;;;;;;;;;;;;;;;;;;5072136;28;1314;-77
2022/08/22 13:15:30;;;;;;;;;;;;;;;;;;5072179;28;1305;-77
2022/08/22 13:17:57;;;;;;;;;;;;;;;;;;5071858;28;1175;-77
2022/08/22 13:20:25;;;;;;;;;;;;;;;;;;5073399;28;828;-77
2022/08/22 13:22:51;;;;;;;;;;;;;;;;;;5072921;28;883;-77
2022/08/22 13:25:16;;;;;;;;;;;;;;;;;;5055587;28;1949;-77
2022/08/22 13:27:47;;;;;;;;;;;;;;;;;;5071898;28;1258;-77
2022/08/22 13:30:18;;;;;;;;;;;;;;;;;;5071273;28;1115;-77
2022/08/22 13:32:45;;;;;;;;;;;;;;;;;;5070568;28;1281;-77
2022/08/22 13:35:22;;;;;;;;;;;;;;;;;;5071716;28;1279;-77
2022/08/22 13:37:51;;;;;;;;;;;;;;;;;;5071204;28;1210;-77
2022/08/22 13:40:25;;;;;;;;;;;;;;;;;;5071365;28;1270;-76
2022/08/22 13:42:56;;;;;;;;;;;;;;;;;;5103922;28;1112;-76
2022/08/22 13:45:23;;;;;;;;;;;;;;;;;;5095123;28;1905;-77
2022/08/22 13:48:08;;;;;;;;;;;;;;;;;;5094115;28;1191;-77
2022/08/22 13:50:40;;;;;;;;;;;;;;;;;;5094945;28;1242;-77
2022/08/22 13:53:12;;;;;;;;;;;;;;;;;;5113693;28;915;-78
2022/08/22 13:55:44;;;;;;;;;;;;;;;;;;5094672;28;1331;-73
2022/08/22 13:58:10;;;;;;;;;;;;;;;;;;5113246;28;907;-72
2022/08/22 14:00:53;;;;;;;;;;;;;;;;;;5112716;28;864;-72
2022/08/22 14:03:24;;;;;;;;;;;;;;;;;;5113549;28;793;-73
2022/08/22 14:05:52;;;;;;;;;;;;;;;;;;5112281;28;1965;-72
2022/08/22 14:08:17;;;;;;;;;;;;;;;;;;5113023;28;982;-73
2022/08/22 14:10:48;;;;;;;;;;;;;;;;;;5094551;28;1262;-74
2022/08/22 14:13:16;;;;;;;;;;;;;;;;;;5095271;28;1313;-74
2022/08/22 14:15:41;;;;;;;;;;;;;;;;;;5093949;28;1320;-72
2022/08/22 14:18:14;;;;;;;;;;;;;;;;;;5076909;28;1311;-69
2022/08/22 14:20:41;;;;;;;;;;;;;;;;;;5112300;28;843;-72
2022/08/22 14:23:06;;;;;;;;;;;;;;;;;;5112454;28;836;-72
2022/08/22 14:25:38;;;;;;;;;;;;;;;;;;5093880;28;1902;-72
2022/08/22 14:28:05;;;;;;;;;;;;;;;;;;5093516;28;1392;-72
2022/08/22 14:30:32;;;;;;;;;;;;;;;;;;5111819;28;836;-72
2022/08/22 14:33:23;;;;;;;;;;;;;;;;;;5111531;28;927;-72
2022/08/22 14:35:59;;;;;;;;;;;;;;;;;;5088892;28;1402;-72
2022/08/22 14:38:30;;;;;;;;;;;;;;;;;;5093440;28;1246;-72
2022/08/22 14:41:06;;;;;;;;;;;;;;;;;;5093340;28;1395;-72
2022/08/22 14:43:32;;;;;;;;;;;;;;;;;;5111949;28;829;-72
2022/08/22 14:46:02;;;;;;;;;;;;;;;;;;5111147;28;1905;-72
2022/08/22 14:48:33;;;;;;;;;;;;;;;;;;5110752;28;1155;-72
2022/08/22 14:51:16;;;;;;;;;;;;;;;;;;5093136;28;1228;-72
2022/08/22 14:53:42;;;;;;;;;;;;;;;;;;5111904;28;928;-72
2022/08/22 14:56:14;;;;;;;;;;;;;;;;;;5093447;28;1365;-72
2022/08/22 14:58:48;;;;;;;;;;;;;;;;;;5111265;28;891;-72
2022/08/22 15:01:15;;;;;;;;;;;;;;;;;;5111259;28;1010;-72
2022/08/22 15:03:41;;;;;;;;;;;;;;;;;;5112026;28;879;-72
2022/08/22 15:06:28;;;;;;;;;;;;;;;;;;5111217;28;1893;-67
2022/08/22 15:08:54;;;;;;;;;;;;;;;;;;5111478;28;947;-71
2022/08/22 15:11:28;;;;;;;;;;;;;;;;;;5094011;28;1162;-72
2022/08/22 15:14:05;;;;;;;;;;;;;;;;;;5094051;28;1214;-72
2022/08/22 15:16:30;;;;;;;;;;;;;;;;;;5112314;28;919;-72
2022/08/22 15:18:56;;;;;;;;;;;;;;;;;;5112066;28;904;-72
2022/08/22 15:21:29;;;;;;;;;;;;;;;;;;5093864;28;907;-72
2022/08/22 15:23:58;;;;;;;;;;;;;;;;;;5093863;28;1482;-72
2022/08/22 15:26:37;;;;;;;;;;;;;;;;;;5093664;28;1902;-72
2022/08/22 15:29:29;;;;;;;;;;;;;;;;;;5111839;28;1081;-72
2022/08/22 15:31:57;;;;;;;;;;;;;;;;;;5090258;28;1420;-72
2022/08/22 15:34:22;;;;;;;;;;;;;;;;;;5111823;28;1192;-72
2022/08/22 15:37:17;;;;;;;;;;;;;;;;;;5110084;28;1140;-72
2022/08/22 15:40:01;;;;;;;;;;;;;;;;;;5091647;28;1331;-72
2022/08/22 15:42:31;;;;;;;;;;;;;;;;;;5111011;28;1148;-72
2022/08/22 15:44:56;;;;;;;;;;;;;;;;;;5094651;28;1991;-72
2022/08/22 15:47:25;;;;;;;;;;;;;;;;;;5094193;28;1262;-72
2022/08/22 15:49:55;;;;;;;;;;;;;;;;;;5112579;28;859;-71
2022/08/22 15:52:23;;;;;;;;;;;;;;;;;;5111924;28;856;-72
2022/08/22 15:54:54;;;;;;;;;;;;;;;;;;5112595;28;797;-72
2022/08/22 15:57:33;;;;;;;;;;;;;;;;;;5115714;28;828;-72
2022/08/22 15:59:59;;;;;;;;;;;;;;;;;;5095704;28;1374;-72
2022/08/22 16:02:35;;;;;;;;;;;;;;;;;;5114363;28;942;-72
2022/08/22 16:05:18;;;;;;;;;;;;;;;;;;5114623;28;1901;-72
2022/08/22 16:07:46;;;;;;;;;;;;;;;;;;5096100;28;1384;-72
2022/08/22 16:10:20;;;;;;;;;;;;;;;;;;5096417;28;1187;-72
2022/08/22 16:13:06;;;;;;;;;;;;;;;;;;5114699;28;998;-72
2022/08/22 16:15:49;;;;;;;;;;;;;;;;;;5114552;28;1049;-72
2022/08/22 16:18:47;;;;;;;;;;;;;;;;;;5114323;28;1009;-72
2022/08/22 16:21:16;;;;;;;;;;;;;;;;;;5051631;28;1163;-72
2022/08/22 16:23:47;;;;;;;;;;;;;;;;;;5095754;28;1214;-72
2022/08/22 16:26:15;;;;;;;;;;;;;;;;;;5114160;28;1951;-72
2022/08/22 16:28:53;;;;;;;;;;;;;;;;;;5114160;28;832;-72
2022/08/22 16:31:18;;;;;;;;;;;;;;;;;;5114471;28;868;-72
2022/08/22 16:33:44;;;;;;;;;;;;;;;;;;5113935;28;1042;-72
2022/08/22 16:36:27;;;;;;;;;;;;;;;;;;5113894;28;911;-72
2022/08/22 16:38:55;;;;;;;;;;;;;;;;;;5113736;28;844;-72
2022/08/22 16:41:26;;;;;;;;;;;;;;;;;;5113794;28;1124;-73
2022/08/22 16:44:10;;;;;;;;;;;;;;;;;;5094724;28;1349;-72
2022/08/22 16:46:42;;;;;;;;;;;;;;;;;;5095884;28;1910;-72
2022/08/22 16:49:09;;;;;;;;;;;;;;;;;;5095805;28;1219;-72
2022/08/22 16:51:36;;;;;;;;;;;;;;;;;;5114290;28;836;-72
2022/08/22 16:54:12;;;;;;;;;;;;;;;;;;5096118;28;1234;-72
2022/08/22 16:56:43;;;;;;;;;;;;;;;;;;5095643;28;1469;-72
2022/08/22 16:59:26;;;;;;;;;;;;;;;;;;5094326;28;1293;-67
2022/08/22 17:02:03;;;;;;;;;;;;;;;;;;5094233;28;1289;-67
2022/08/22 17:04:29;;;;;;;;;;;;;;;;;;5096105;28;1218;-72
2022/08/22 17:07:13;;;;;;;;;;;;;;;;;;5113272;28;1959;-72
2022/08/22 17:09:51;;;;;;;;;;;;;;;;;;5113211;28;907;-68
2022/08/22 17:12:22;;;;;;;;;;;;;;;;;;5113469;28;816;-68
2022/08/22 17:14:55;;;;;;;;;;;;;;;;;;5113332;28;836;-68
2022/08/22 17:17:40;;;;;;;;;;;;;;;;;;5094648;28;1349;-67
2022/08/22 17:20:07;;;;;;;;;;;;;;;;;;5098104;28;1032;-68
2022/08/22 17:22:53;;;;;;;;;;;;;;;;;;5113141;28;958;-67
2022/08/22 17:25:20;;;;;;;;;;;;;;;;;;5049343;28;1969;-67
2022/08/22 17:27:50;;;;;;;;;;;;;;;;;;5111470;28;1242;-67
2022/08/22 17:30:19;;;;;;;;;;;;;;;;;;5094496;28;1090;-66
2022/08/22 17:33:03;;;;;;;;;;;;;;;;;;5094283;28;1277;-66
2022/08/22 17:35:40;;;;;;;;;;;;;;;;;;5113381;28;797;-71
2022/08/22 17:38:10;;;;;;;;;;;;;;;;;;5095188;28;1178;-69
2022/08/22 17:40:39;;;;;;;;;;;;;;;;;;5113763;28;848;-70
2022/08/22 17:43:25;;;;;;;;;;;;;;;;;;5113448;28;1103;-70
2022/08/22 17:46:00;;;;;;;;;;;;;;;;;;5113433;28;1917;-70
2022/08/22 17:48:27;;;;;;;;;;;;;;;;;;5094809;28;1467;-70
2022/08/22 17:51:01;;;;;;;;;;;;;;;;;;5113430;28;911;-70
2022/08/22 17:53:33;;;;;;;;;;;;;;;;;;5095081;28;1356;-70
2022/08/22 17:56:01;;;;;;;;;;;;;;;;;;5113028;28;979;-70
2022/08/22 17:58:29;;;;;;;;;;;;;;;;;;5094870;28;1381;-69
2022/08/22 18:01:02;;;;;;;;;;;;;;;;;;5113339;28;987;-69